createdAt,value
2019-04-23T00:00:08.304Z,99.90
2019-04-23T00:02:50.862Z,99.90
2019-04-23T00:05:17.249Z,99.90
2019-04-23T00:08:14.011Z,99.90
2019-04-23T00:10:19.461Z,99.60
2019-04-23T00:12:49.511Z,98.90
2019-04-23T00:15:20.293Z,93.60
2019-04-23T00:18:02.796Z,94.70
2019-04-23T00:22:52.854Z,91.60
2019-04-23T00:27:59.441Z,90.90
2019-04-23T00:30:28.245Z,91.40
2019-04-23T00:32:58.379Z,93.60
2019-04-23T00:35:24.408Z,91.50
2019-04-23T00:37:57.643Z,95.40
2019-04-23T00:40:25.982Z,99.60
2019-04-23T00:43:00.621Z,96.60
2019-04-23T00:45:24.466Z,93.30
2019-04-23T00:50:30.365Z,96.50
2019-04-23T00:52:58.799Z,93.30
2019-04-23T00:55:21.102Z,93.20
2019-04-23T00:57:58.159Z,92.90
2019-04-23T01:00:36.146Z,95.20
2019-04-23T01:02:59.067Z,94.00
2019-04-23T01:05:30.687Z,93.90
2019-04-23T01:07:58.250Z,94.50
2019-04-23T01:10:53.945Z,96.20
2019-04-23T01:13:25.152Z,99.90
2019-04-23T01:15:53.630Z,97.80
2019-04-23T01:20:52.795Z,99.90
2019-04-23T01:23:13.748Z,99.90
2019-04-23T01:25:54.649Z,99.90
2019-04-23T01:28:43.571Z,99.90
2019-04-23T01:31:14.721Z,99.90
2019-04-23T01:41:13.175Z,99.90
2019-04-23T01:43:41.112Z,99.90
2019-04-23T01:48:45.529Z,99.90
2019-04-23T01:51:08.209Z,99.90
2019-04-23T01:53:38.686Z,99.90
2019-04-23T01:56:11.465Z,99.90
2019-04-23T02:01:12.872Z,99.90
2019-04-23T02:03:42.739Z,99.90
2019-04-23T02:06:14.685Z,99.90
2019-04-23T02:08:47.052Z,99.90
2019-04-23T02:13:43.530Z,99.90
2019-04-23T02:16:10.208Z,99.90
2019-04-23T02:18:43.947Z,99.90
2019-04-23T02:23:57.242Z,99.90
2019-04-23T02:26:20.119Z,99.90
2019-04-23T02:31:33.045Z,99.90
2019-04-23T02:34:00.429Z,99.90
2019-04-23T02:36:34.357Z,99.90
2019-04-23T02:41:26.706Z,99.90
2019-04-23T02:43:59.556Z,99.90
2019-04-23T02:51:26.816Z,99.90
2019-04-23T02:54:04.661Z,99.90
2019-04-23T02:59:05.607Z,99.90
2019-04-23T03:06:32.196Z,99.90
2019-04-23T03:09:15.235Z,99.90
2019-04-23T03:16:38.178Z,99.90
2019-04-23T03:19:29.598Z,99.90
2019-04-23T03:24:36.628Z,99.90
2019-04-23T03:27:10.232Z,99.90
2019-04-23T03:29:31.669Z,99.90
2019-04-23T03:35:10.208Z,99.90
2019-04-23T03:39:44.239Z,99.90
2019-04-23T03:42:02.789Z,99.90
2019-04-23T03:44:29.867Z,99.90
2019-04-23T03:47:07.051Z,99.90
2019-04-23T03:49:30.077Z,99.90
2019-04-23T03:52:07.469Z,99.90
2019-04-23T03:54:39.792Z,99.90
2019-04-23T03:57:13.532Z,99.90
2019-04-23T04:02:12.325Z,99.90
2019-04-23T04:04:34.990Z,99.90
2019-04-23T04:07:18.588Z,99.90
2019-04-23T04:09:34.211Z,99.90
2019-04-23T04:12:04.115Z,99.90
2019-04-23T04:14:38.928Z,99.90
2019-04-23T04:17:09.804Z,99.90
2019-04-23T04:24:34.935Z,99.90
2019-04-23T04:27:13.606Z,99.90
2019-04-23T04:29:40.804Z,99.90
2019-04-23T04:37:36.155Z,99.90
2019-04-23T04:39:34.335Z,99.90
2019-04-23T04:46:59.799Z,99.90
2019-04-23T04:49:42.547Z,99.90
2019-04-23T04:52:21.864Z,99.90
2019-04-23T04:54:22.920Z,99.90
2019-04-23T04:57:12.743Z,99.90
2019-04-23T04:59:45.756Z,99.90
2019-04-23T05:09:48.172Z,99.90
2019-04-23T05:12:16.314Z,99.90
2019-04-23T05:17:07.904Z,99.90
2019-04-23T05:19:53.344Z,99.90
2019-04-23T05:24:36.726Z,99.90
2019-04-23T05:27:03.341Z,99.90
2019-04-23T05:29:50.281Z,99.90
2019-04-23T05:32:07.486Z,99.90
2019-04-23T05:34:38.081Z,99.90
2019-04-23T05:37:04.970Z,99.90
2019-04-23T05:39:38.474Z,99.90
2019-04-23T05:42:04.201Z,99.90
2019-04-23T05:44:42.956Z,99.90
2019-04-23T05:47:14.996Z,99.90
2019-04-23T05:49:41.320Z,99.90
2019-04-23T05:52:11.642Z,99.90
2019-04-23T05:54:45.009Z,99.90
2019-04-23T05:57:09.953Z,99.90
2019-04-23T06:02:20.786Z,99.90
2019-04-23T06:04:49.554Z,99.90
2019-04-23T06:09:56.681Z,99.90
2019-04-23T06:12:19.016Z,99.90
2019-04-23T06:14:57.705Z,99.90
2019-04-23T06:17:24.992Z,99.90
2019-04-23T06:20:07.866Z,99.90
2019-04-23T06:22:38.935Z,99.90
2019-04-23T06:25:14.945Z,94.40
2019-04-23T06:27:33.860Z,90.90
2019-04-23T06:30:04.550Z,91.30
2019-04-23T06:32:38.877Z,89.50
2019-04-23T06:35:03.742Z,89.50
2019-04-23T06:38:03.244Z,86.40
2019-04-23T06:40:13.900Z,85.50
2019-04-23T06:42:54.816Z,85.50
2019-04-23T06:45:26.093Z,86.10
2019-04-23T06:47:54.054Z,84.70
2019-04-23T06:50:30.138Z,85.20
2019-04-23T06:52:49.995Z,79.30
2019-04-23T06:55:29.674Z,73.90
2019-04-23T06:57:55.268Z,73.30
2019-04-23T07:00:34.247Z,68.40
2019-04-23T07:03:11.087Z,64.90
2019-04-23T07:05:37.649Z,64.10
2019-04-23T07:08:13.590Z,62.40
2019-04-23T07:10:55.531Z,60.70
2019-04-23T07:13:29.115Z,61.20
2019-04-23T07:15:55.247Z,61.30
2019-04-23T07:18:22.535Z,61.90
2019-04-23T07:21:00.942Z,62.80
2019-04-23T07:23:41.777Z,61.60
2019-04-23T07:26:10.550Z,60.00
2019-04-23T07:28:49.964Z,58.50
2019-04-23T07:31:07.419Z,59.20
2019-04-23T07:33:38.217Z,60.30
2019-04-23T07:36:20.670Z,60.10
2019-04-23T07:41:55.562Z,57.40
2019-04-23T07:44:36.843Z,57.70
2019-04-23T07:47:15.693Z,57.80
2019-04-23T07:50:05.815Z,57.20
2019-04-23T08:00:47.125Z,58.80
2019-04-23T08:03:27.385Z,59.20
2019-04-23T08:08:43.795Z,61.20
2019-04-23T08:16:34.330Z,60.50
2019-04-23T08:19:11.517Z,61.90
2019-04-23T08:21:43.972Z,60.30
2019-04-23T08:24:49.040Z,58.00
2019-04-23T08:27:24.996Z,57.70
2019-04-23T08:29:58.844Z,57.20
2019-04-23T08:32:27.984Z,56.60
2019-04-23T08:35:31.526Z,56.30
2019-04-23T08:40:58.871Z,56.50
2019-04-23T08:46:15.549Z,58.50
2019-04-23T08:52:07.116Z,57.10
2019-04-23T08:54:47.844Z,55.40
2019-04-23T08:59:47.573Z,54.30
2019-04-23T09:02:40.399Z,54.40
2019-04-23T09:10:33.942Z,49.70
2019-04-23T09:13:33.218Z,49.50
2019-04-23T09:15:44.962Z,49.80
2019-04-23T09:18:17.955Z,49.60
2019-04-23T09:20:37.527Z,50.90
2019-04-23T09:23:20.615Z,52.30
2019-04-23T09:28:33.211Z,51.90
2019-04-23T09:34:00.546Z,50.80
2019-04-23T09:42:54.552Z,50.20
2019-04-23T09:53:46.898Z,48.80
2019-04-23T09:56:22.389Z,49.00
2019-04-23T09:58:51.745Z,50.40
2019-04-23T10:01:39.360Z,49.60
2019-04-23T10:03:50.976Z,49.60
2019-04-23T10:06:20.935Z,51.00
2019-04-23T10:08:55.581Z,51.30
2019-04-23T10:11:26.064Z,51.00
2019-04-23T10:16:55.834Z,50.50
2019-04-23T10:19:30.756Z,49.80
2019-04-23T10:22:11.265Z,50.90
2019-04-23T10:24:55.091Z,49.80
2019-04-23T10:27:30.201Z,49.40
2019-04-23T10:30:14.434Z,49.40
2019-04-23T10:32:41.297Z,50.10
2019-04-23T10:35:22.120Z,50.80
2019-04-23T10:37:49.089Z,52.50
2019-04-23T10:40:16.996Z,50.40
2019-04-23T10:42:56.466Z,49.00
2019-04-23T10:45:42.553Z,49.20
2019-04-23T10:48:49.723Z,49.50
2019-04-23T10:51:24.949Z,49.70
2019-04-23T10:54:07.354Z,50.40
2019-04-23T10:59:17.007Z,50.80
2019-04-23T11:01:53.131Z,51.10
2019-04-23T11:04:32.869Z,51.50
2019-04-23T11:06:45.071Z,51.80
2019-04-23T11:09:38.594Z,52.20
2019-04-23T11:12:05.951Z,51.50
2019-04-23T11:14:33.825Z,51.40
2019-04-23T11:17:06.183Z,52.10
2019-04-23T11:19:40.427Z,52.50
2019-04-23T11:22:28.166Z,52.50
2019-04-23T11:24:41.931Z,51.30
2019-04-23T11:27:20.774Z,52.50
2019-04-23T11:32:40.830Z,54.00
2019-04-23T11:35:03.239Z,54.40
2019-04-23T11:37:25.415Z,52.90
2019-04-23T11:39:45.390Z,52.30
2019-04-23T11:44:51.128Z,52.10
2019-04-23T11:47:42.404Z,51.00
2019-04-23T11:49:53.573Z,53.10
2019-04-23T11:52:19.365Z,52.50
2019-04-23T11:54:46.826Z,51.50
2019-04-23T11:59:53.501Z,53.30
2019-04-23T12:02:32.605Z,51.10
2019-04-23T12:05:17.146Z,51.40
2019-04-23T12:10:34.278Z,51.60
2019-04-23T12:12:44.619Z,50.40
2019-04-23T12:15:32.971Z,50.80
2019-04-23T12:18:05.456Z,53.40
2019-04-23T12:23:35.049Z,49.50
2019-04-23T12:25:58.695Z,51.00
2019-04-23T12:31:23.532Z,49.70
2019-04-23T12:36:46.884Z,48.50
2019-04-23T12:39:12.407Z,49.50
2019-04-23T12:41:51.113Z,49.00
2019-04-23T12:44:14.863Z,49.40
2019-04-23T12:50:18.841Z,49.30
2019-04-23T12:55:06.916Z,49.30
2019-04-23T13:00:00.336Z,50.10
2019-04-23T13:05:05.172Z,49.80
2019-04-23T13:07:41.477Z,50.80
2019-04-23T13:20:23.542Z,50.50
2019-04-23T13:25:34.967Z,51.50
2019-04-23T13:30:46.438Z,51.00
2019-04-23T13:35:53.676Z,50.90
2019-04-23T13:38:17.500Z,50.90
2019-04-23T13:43:19.501Z,53.00
2019-04-23T13:45:59.195Z,51.30
2019-04-23T13:48:13.398Z,51.60
2019-04-23T13:50:49.985Z,51.70
2019-04-23T13:53:28.525Z,50.90
2019-04-23T13:55:52.536Z,52.40
2019-04-23T14:01:24.637Z,52.30
2019-04-23T14:03:39.654Z,52.10
2019-04-23T14:06:09.082Z,52.20
2019-04-23T14:08:46.980Z,51.80
2019-04-23T14:11:19.723Z,52.50
2019-04-23T14:16:34.011Z,51.70
2019-04-23T14:19:06.745Z,51.60
2019-04-23T14:21:42.532Z,52.30
2019-04-23T14:24:18.134Z,52.40
2019-04-23T14:26:34.055Z,53.30
2019-04-23T14:29:04.535Z,53.10
2019-04-23T14:31:54.102Z,52.90
2019-04-23T14:34:11.489Z,52.30
2019-04-23T14:36:47.759Z,52.50
2019-04-23T14:39:16.209Z,52.90
2019-04-23T14:41:43.308Z,52.90
2019-04-23T14:44:31.301Z,52.70
2019-04-23T14:49:41.114Z,53.90
2019-04-23T14:52:06.627Z,52.70
2019-04-23T14:55:11.433Z,53.30
2019-04-23T14:59:59.127Z,53.70
2019-04-23T15:02:27.157Z,54.20
2019-04-23T15:05:05.776Z,54.10
2019-04-23T15:10:10.582Z,55.30
2019-04-23T15:17:49.714Z,53.90
2019-04-23T15:20:23.029Z,55.20
2019-04-23T15:23:17.026Z,54.50
2019-04-23T15:25:40.337Z,54.20
2019-04-23T15:30:28.111Z,53.70
2019-04-23T15:36:08.776Z,53.60
2019-04-23T15:41:03.752Z,54.40
2019-04-23T15:43:12.471Z,54.50
2019-04-23T15:45:44.544Z,55.30
2019-04-23T15:50:53.748Z,55.50
2019-04-23T15:53:11.043Z,54.50
2019-04-23T15:55:59.724Z,55.70
2019-04-23T15:58:33.238Z,56.10
2019-04-23T16:01:21.851Z,55.90
2019-04-23T16:03:24.572Z,55.50
2019-04-23T16:05:57.124Z,55.50
2019-04-23T16:17:08.197Z,56.20
2019-04-23T16:20:09.289Z,56.10
2019-04-23T16:25:06.733Z,56.10
2019-04-23T16:27:41.630Z,56.60
2019-04-23T16:30:50.443Z,57.60
2019-04-23T16:33:11.389Z,56.20
2019-04-23T16:36:01.947Z,56.40
2019-04-23T16:38:40.831Z,57.30
2019-04-23T16:41:09.253Z,57.60
2019-04-23T16:43:50.453Z,57.10
2019-04-23T16:46:24.030Z,57.60
2019-04-23T16:49:09.021Z,56.80
2019-04-23T16:51:29.664Z,57.50
2019-04-23T17:00:02.955Z,57.30
2019-04-23T17:02:19.290Z,57.50
2019-04-23T17:05:02.900Z,57.10
2019-04-23T17:13:09.912Z,58.40
2019-04-23T17:15:46.635Z,58.90
2019-04-23T17:18:31.709Z,58.70
2019-04-23T17:21:01.840Z,59.30
2019-04-23T17:23:59.505Z,58.90
2019-04-23T17:26:23.533Z,59.20
2019-04-23T17:31:35.273Z,59.90
2019-04-23T17:34:12.108Z,60.00
2019-04-23T17:37:00.652Z,60.80
2019-04-23T17:43:04.614Z,58.80
2019-04-23T17:48:35.888Z,57.60
2019-04-23T17:51:14.455Z,58.50
2019-04-23T17:54:04.820Z,58.80
2019-04-23T17:56:54.363Z,58.30
2019-04-23T18:02:36.078Z,59.10
2019-04-23T18:04:44.024Z,58.80
2019-04-23T18:07:31.925Z,60.30
2019-04-23T18:10:01.170Z,60.60
2019-04-23T18:12:36.094Z,60.90
2019-04-23T18:15:15.567Z,65.40
2019-04-23T18:23:22.671Z,73.00
2019-04-23T18:26:00.210Z,71.60
2019-04-23T18:28:30.058Z,76.50
2019-04-23T18:31:11.102Z,80.00
2019-04-23T18:36:13.470Z,96.00
2019-04-23T18:41:43.528Z,99.90
2019-04-23T18:47:14.513Z,99.90
2019-04-23T18:49:45.084Z,99.90
2019-04-23T18:52:17.943Z,99.90
2019-04-23T18:54:52.374Z,99.90
2019-04-23T18:59:57.129Z,99.90
2019-04-23T19:13:21.813Z,99.90
2019-04-23T19:15:40.640Z,99.90
2019-04-23T19:18:32.066Z,99.90
2019-04-23T19:21:08.014Z,99.90
2019-04-23T19:23:39.505Z,99.90
2019-04-23T19:26:32.317Z,99.90
2019-04-23T19:34:24.602Z,99.90
2019-04-23T19:36:49.188Z,99.90
2019-04-23T19:39:11.141Z,99.90
2019-04-23T19:41:49.546Z,99.90
2019-04-23T19:44:08.375Z,99.90
2019-04-23T19:49:11.296Z,99.90
2019-04-23T19:51:44.259Z,99.90
2019-04-23T19:54:21.957Z,99.90
2019-04-23T19:56:47.161Z,99.90
2019-04-23T19:59:13.895Z,99.90
2019-04-23T20:01:41.712Z,99.90
2019-04-23T20:04:04.404Z,99.90
2019-04-23T20:07:04.412Z,99.90
2019-04-23T20:09:33.467Z,99.90
2019-04-23T20:11:50.533Z,99.90
2019-04-23T20:14:09.580Z,99.90
2019-04-23T20:19:24.138Z,99.90
2019-04-23T20:21:50.865Z,99.90
2019-04-23T20:26:51.436Z,99.90
2019-04-23T20:34:51.818Z,99.90
2019-04-23T20:36:54.274Z,99.90
2019-04-23T20:39:32.704Z,99.90
2019-04-23T20:42:12.047Z,99.90
2019-04-23T20:54:43.142Z,99.90
2019-04-23T20:57:24.781Z,99.90
2019-04-23T20:59:56.396Z,99.90
2019-04-23T21:02:42.001Z,99.90
2019-04-23T21:05:10.167Z,99.90
2019-04-23T21:07:30.549Z,99.90
2019-04-23T21:10:09.196Z,99.90
2019-04-23T21:12:42.725Z,99.90
2019-04-23T21:15:04.873Z,99.90
2019-04-23T21:17:35.583Z,99.90
2019-04-23T21:22:32.105Z,99.90
2019-04-23T21:24:56.606Z,99.90
2019-04-23T21:27:40.992Z,99.90
2019-04-23T21:30:12.355Z,99.90
2019-04-23T21:32:49.519Z,99.90
2019-04-23T21:35:07.917Z,99.90
2019-04-23T21:40:42.441Z,99.90
2019-04-23T21:43:01.462Z,99.90
2019-04-23T21:45:25.866Z,99.90
2019-04-23T21:50:39.794Z,99.90
2019-04-23T21:55:37.074Z,99.90
2019-04-23T21:58:07.543Z,99.90
2019-04-23T22:00:39.350Z,99.90
2019-04-23T22:03:06.797Z,99.90
2019-04-23T22:05:39.960Z,99.90
2019-04-23T22:08:05.762Z,99.90
2019-04-23T22:10:25.663Z,99.90
2019-04-23T22:13:12.991Z,99.90
2019-04-23T22:15:34.547Z,99.90
2019-04-23T22:18:02.806Z,99.90
2019-04-23T22:23:30.565Z,99.90
2019-04-23T22:26:14.540Z,99.90
2019-04-23T22:28:33.295Z,99.90
2019-04-23T22:31:04.072Z,99.90
2019-04-23T22:33:37.252Z,99.90
2019-04-23T22:36:07.172Z,99.90
2019-04-23T22:38:25.866Z,99.90
2019-04-23T22:41:01.825Z,99.90
2019-04-23T22:43:31.114Z,99.90
2019-04-23T22:46:20.691Z,99.90
2019-04-23T22:48:34.937Z,99.90
2019-04-23T22:51:13.472Z,99.90
2019-04-23T22:53:24.817Z,99.90
2019-04-23T22:56:03.291Z,99.90
2019-04-23T22:58:31.505Z,99.90
2019-04-23T23:01:21.192Z,99.90
2019-04-23T23:03:51.622Z,99.90
2019-04-23T23:06:21.048Z,99.90
2019-04-23T23:09:02.642Z,99.90
2019-04-23T23:11:16.879Z,99.90
2019-04-23T23:14:10.157Z,99.90
2019-04-23T23:16:21.400Z,99.90
2019-04-23T23:19:01.176Z,99.90
2019-04-23T23:21:20.464Z,99.90
2019-04-23T23:23:56.467Z,99.90
2019-04-23T23:26:28.058Z,99.90
2019-04-23T23:28:55.104Z,99.90
2019-04-23T23:31:22.566Z,99.90
2019-04-23T23:33:55.752Z,99.90
2019-04-23T23:38:58.655Z,99.90
2019-04-23T23:41:26.397Z,99.90
2019-04-23T23:44:07.938Z,99.90
2019-04-23T23:46:46.955Z,99.90
2019-04-23T23:48:57.036Z,99.90
2019-04-23T23:51:30.885Z,99.90
2019-04-23T23:54:04.961Z,99.90
2019-04-23T23:56:30.195Z,99.90
2019-04-23T23:59:03.870Z,99.90
